Etusivu
METAR-TAF:

METAR-TAF

Lentoasemat :

Brasília, Distrito Federal, Brasilia

Leveyspiiri: 15-52S, Pituuspiiri: 047-56W, korkeus merenpinnasta: 1061 m

Tämänhetkinen sää

Tämä raportti tehtiin 40 minuuttia sitten, kello 20.00 UTC
Tuuli 8 kn etelästä/kaakosta
Lämpötila 28°C
Kosteus 22%
Ilmanpaine 1019 hPa
Näkyvyys 10 km tai enemmän
Muutamia pilviä 4500 ft:n korkeudessa

METAR: SBBR 192000Z 15008KT 9999 FEW045 28/04 Q1019

Aika: 17:40 (20:40 UTC)

Sääennuste

Tämä raportti tehtiin 4 tuntia ja 40 minuuttia sitten, kello 16.00 UTC
Ennuste voimassa 19. päivästä klo 18 UTC - 20. päivään klo 18 UTC
Tuuli 7 kn kaakosta
Näkyvyys 10 km tai enemmän
ei pilviä alle 1500 m:ssä eikä cumulonimbus-pilviä
Tulossa
20. päivästä klo 01 UTC - 20. päivään klo 03 UTC
Tuuli 5 kn lounaasta
Tulossa
20. päivästä klo 08 UTC - 20. päivään klo 10 UTC
Tuuli 10 kn idästä/kaakosta

TAF: SBBR 191600Z 1918/2018 14007KT CAVOK TX30/1918Z TN17/2007Z BECMG 2001/2003 23005KT BECMG 2008/2010 12010KT RMK PDB

Säähavainnot ja -ennusteet yli 4000 lentoasemalta (METAR- ja TAF-raportit).

Käytössä olevat sääasemat on merkitty karttaan keltaisilla ja punaisilla pisteillä.

Aseta hiiri pisteen päälle nähdäksesi sääaseman nimen.

Klikkaa sitten nähdäksesi säähavainnot ja -ennusteet.

Kartan vaihtaminen: klikkaa mustalla rastilla varustettuja vihreitä pisteitä, niin voit zoomata sisään; viivalla varustettua vihreää pistettä, niin voit zoomata ulos tai vihreitä nuolia, niin pääset viereisille kartoille.


METAR-TAF: